createdAt,value
2022-08-25T00:01:19.650Z,99153.13
2022-08-25T00:03:46.081Z,99144.63
2022-08-25T00:06:13.301Z,99152.81
2022-08-25T00:08:39.862Z,99149.53
2022-08-25T00:11:06.294Z,99144.25
2022-08-25T00:13:33.116Z,99140.19
2022-08-25T00:16:00.028Z,99142.00
2022-08-25T00:18:26.788Z,99140.91
2022-08-25T00:20:53.400Z,99135.66
2022-08-25T00:23:19.797Z,99131.84
2022-08-25T00:25:46.550Z,99138.16
2022-08-25T00:28:13.572Z,99136.44
2022-08-25T00:30:40.587Z,99133.84
2022-08-25T00:33:07.067Z,99135.53
2022-08-25T00:35:33.692Z,99129.06
2022-08-25T00:38:00.305Z,99136.34
2022-08-25T00:40:26.885Z,99142.06
2022-08-25T00:42:53.742Z,99138.84
2022-08-25T00:45:20.508Z,99133.34
2022-08-25T00:47:47.177Z,99138.34
2022-08-25T00:50:13.801Z,99133.94
2022-08-25T00:52:40.297Z,99130.84
2022-08-25T00:55:08.249Z,99130.84
2022-08-25T00:57:35.183Z,99127.81
2022-08-25T01:00:04.782Z,99117.75
2022-08-25T01:02:31.302Z,99115.69
2022-08-25T01:05:00.147Z,99112.88
2022-08-25T01:07:26.629Z,99117.28
2022-08-25T01:09:53.118Z,99110.25
2022-08-25T01:12:20.059Z,99113.63
2022-08-25T01:14:46.732Z,99111.72
2022-08-25T01:17:13.790Z,99117.38
2022-08-25T01:19:40.467Z,99113.97
2022-08-25T01:22:07.040Z,99108.88
2022-08-25T01:24:33.510Z,99105.50
2022-08-25T01:27:00.670Z,99103.88
2022-08-25T01:29:27.101Z,99108.66
2022-08-25T01:31:53.652Z,99110.09
2022-08-25T01:34:20.399Z,99110.94
2022-08-25T01:36:47.020Z,99109.88
2022-08-25T01:39:13.674Z,99108.38
2022-08-25T01:41:40.434Z,99102.19
2022-08-25T01:44:06.943Z,99101.03
2022-08-25T01:46:36.511Z,99103.63
2022-08-25T01:49:06.719Z,99096.63
2022-08-25T01:51:33.421Z,99092.63
2022-08-25T01:53:59.857Z,99091.41
2022-08-25T01:56:26.625Z,99095.38
2022-08-25T01:58:53.076Z,99091.53
2022-08-25T02:01:19.982Z,99104.78
2022-08-25T02:03:48.083Z,99103.16
2022-08-25T02:06:15.072Z,99095.63
2022-08-25T02:08:41.930Z,99102.19
2022-08-25T02:11:08.463Z,99100.78
2022-08-25T02:13:35.068Z,99094.91
2022-08-25T02:16:02.081Z,99093.75
2022-08-25T02:18:28.918Z,99088.25
2022-08-25T02:20:55.580Z,99091.56
2022-08-25T02:23:22.279Z,99094.13
2022-08-25T02:25:48.910Z,99098.72
2022-08-25T02:28:17.839Z,99097.50
2022-08-25T02:30:44.394Z,99093.16
2022-08-25T02:33:11.115Z,99096.22
2022-08-25T02:35:37.549Z,99089.25
2022-08-25T02:38:04.331Z,99091.22
2022-08-25T02:40:31.047Z,99083.38
2022-08-25T02:42:57.574Z,99093.44
2022-08-25T02:45:23.973Z,99084.00
2022-08-25T02:47:50.579Z,99084.00
2022-08-25T02:50:17.092Z,99087.91
2022-08-25T02:52:43.763Z,99086.53
2022-08-25T02:55:10.565Z,99084.25
2022-08-25T02:57:37.051Z,99086.94
2022-08-25T03:00:03.549Z,99080.69
2022-08-25T03:02:30.485Z,99082.50
2022-08-25T03:04:57.253Z,99087.84
2022-08-25T03:07:24.769Z,99093.47
2022-08-25T03:09:51.418Z,99078.13
2022-08-25T03:12:17.855Z,99084.72
2022-08-25T03:14:44.789Z,99078.03
2022-08-25T03:17:11.559Z,99082.78
2022-08-25T03:19:38.052Z,99081.38
2022-08-25T03:22:04.720Z,99087.41
2022-08-25T03:24:31.427Z,99083.03
2022-08-25T03:26:58.035Z,99082.69
2022-08-25T03:29:24.478Z,99087.13
2022-08-25T03:31:51.122Z,99087.75
2022-08-25T03:34:17.608Z,99077.81
2022-08-25T03:36:45.148Z,99077.34
2022-08-25T03:39:11.681Z,99079.53
2022-08-25T03:41:38.336Z,99082.06
2022-08-25T03:44:04.777Z,99072.13
2022-08-25T03:46:31.502Z,99077.97
2022-08-25T03:48:58.509Z,99077.84
2022-08-25T03:51:24.950Z,99076.81
2022-08-25T03:53:52.157Z,99075.34
2022-08-25T03:56:18.753Z,99076.47
2022-08-25T03:58:45.343Z,99068.69
2022-08-25T04:04:02.463Z,99082.69
2022-08-25T04:06:28.872Z,99074.13
2022-08-25T04:08:55.614Z,99073.94
2022-08-25T04:11:22.217Z,99076.22
2022-08-25T04:13:48.799Z,99076.19
2022-08-25T04:16:15.258Z,99074.69
2022-08-25T04:18:42.036Z,99074.25
2022-08-25T04:21:08.601Z,99070.28
2022-08-25T04:23:35.130Z,99075.75
2022-08-25T04:26:01.852Z,99076.34
2022-08-25T04:28:28.421Z,99078.19
2022-08-25T04:30:54.842Z,99074.50
2022-08-25T04:33:21.485Z,99073.66
2022-08-25T04:35:47.900Z,99069.19
2022-08-25T04:38:14.374Z,99074.66
2022-08-25T04:40:41.283Z,99073.09
2022-08-25T04:43:07.742Z,99067.44
2022-08-25T04:45:34.216Z,99078.38
2022-08-25T04:48:01.118Z,99072.88
2022-08-25T04:50:27.594Z,99072.09
2022-08-25T04:52:54.230Z,99073.81
2022-08-25T04:55:20.932Z,99079.06
2022-08-25T04:57:47.377Z,99074.88
2022-08-25T05:00:13.755Z,99076.06
2022-08-25T05:02:40.590Z,99069.84
2022-08-25T05:05:07.089Z,99070.03
2022-08-25T05:07:33.512Z,99071.84
2022-08-25T05:10:00.217Z,99073.53
2022-08-25T05:12:26.644Z,99071.28
2022-08-25T05:14:57.245Z,99072.16
2022-08-25T05:17:23.961Z,99071.09
2022-08-25T05:19:50.438Z,99060.56
2022-08-25T05:22:16.949Z,99069.13
2022-08-25T05:24:46.347Z,99076.03
2022-08-25T05:27:13.173Z,99070.09
2022-08-25T05:29:39.587Z,99075.88
2022-08-25T05:32:06.320Z,99069.59
2022-08-25T05:34:33.044Z,99067.81
2022-08-25T05:36:59.496Z,99068.94
2022-08-25T05:39:26.872Z,99070.00
2022-08-25T05:41:53.938Z,99072.53
2022-08-25T05:44:21.362Z,99071.94
2022-08-25T05:46:48.279Z,99077.00
2022-08-25T05:49:15.171Z,99074.47
2022-08-25T05:51:41.664Z,99079.03
2022-08-25T05:54:08.117Z,99072.84
2022-08-25T05:56:34.750Z,99073.31
2022-08-25T05:59:02.449Z,99069.00
2022-08-25T06:01:31.784Z,99077.28
2022-08-25T06:03:58.698Z,99075.50
2022-08-25T06:06:25.164Z,99082.81
2022-08-25T06:08:51.736Z,99077.66
2022-08-25T06:11:20.942Z,99082.53
2022-08-25T06:13:47.396Z,99085.91
2022-08-25T06:16:14.015Z,99079.88
2022-08-25T06:18:40.897Z,99090.16
2022-08-25T06:21:07.390Z,99084.50
2022-08-25T06:23:36.487Z,99084.88
2022-08-25T06:26:02.915Z,99092.94
2022-08-25T06:28:29.749Z,99079.88
2022-08-25T06:30:56.256Z,99083.13
2022-08-25T06:33:22.713Z,99089.00
2022-08-25T06:35:49.214Z,99086.81
2022-08-25T06:38:15.789Z,99083.63
2022-08-25T06:40:42.268Z,99090.34
2022-08-25T06:43:08.943Z,99088.00
2022-08-25T06:45:37.975Z,99095.16
2022-08-25T06:48:04.458Z,99089.94
2022-08-25T06:50:31.147Z,99090.19
2022-08-25T06:52:58.109Z,99089.03
2022-08-25T06:55:24.695Z,99094.06
2022-08-25T06:57:51.309Z,99097.09
2022-08-25T07:00:17.767Z,99100.00
2022-08-25T07:02:44.224Z,99097.19
2022-08-25T07:05:16.963Z,99097.84
2022-08-25T07:07:48.113Z,99102.22
2022-08-25T07:10:14.498Z,99104.91
2022-08-25T07:12:45.986Z,99103.06
2022-08-25T07:15:20.649Z,99100.88
2022-08-25T07:17:47.436Z,99095.84
2022-08-25T07:20:15.471Z,99103.06
2022-08-25T07:22:42.737Z,99106.41
2022-08-25T07:25:09.236Z,99107.25
2022-08-25T07:27:35.834Z,99110.16
2022-08-25T07:30:02.248Z,99108.59
2022-08-25T07:32:31.385Z,99107.75
2022-08-25T07:34:58.195Z,99111.13
2022-08-25T07:37:48.777Z,99110.28
2022-08-25T07:40:11.310Z,99110.94
2022-08-25T07:42:37.821Z,99100.88
2022-08-25T07:45:04.309Z,99106.94
2022-08-25T07:47:34.331Z,99118.34
2022-08-25T07:50:00.752Z,99112.38
2022-08-25T07:52:28.086Z,99120.63
2022-08-25T07:54:54.635Z,99120.38
2022-08-25T07:57:21.524Z,99113.97
2022-08-25T07:59:47.917Z,99126.41
2022-08-25T08:02:18.468Z,99126.09
2022-08-25T08:04:45.754Z,99122.88
2022-08-25T08:07:12.352Z,99127.75
2022-08-25T08:09:38.975Z,99129.78
2022-08-25T08:12:05.426Z,99133.31
2022-08-25T08:14:31.887Z,99132.47
2022-08-25T08:16:59.100Z,99133.69
2022-08-25T08:19:25.862Z,99137.88
2022-08-25T08:21:52.672Z,99134.50
2022-08-25T08:24:44.104Z,99130.97
2022-08-25T08:27:07.504Z,99132.84
2022-08-25T08:29:34.035Z,99126.44
2022-08-25T08:32:01.803Z,99133.88
2022-08-25T08:34:29.069Z,99138.09
2022-08-25T08:36:56.119Z,99132.03
2022-08-25T08:39:22.880Z,99124.78
2022-08-25T08:42:07.697Z,99134.81
2022-08-25T08:44:36.811Z,99116.91
2022-08-25T08:47:03.625Z,99123.69
2022-08-25T08:49:30.468Z,99122.38
2022-08-25T08:51:58.328Z,99119.72
2022-08-25T08:54:24.828Z,99121.75
2022-08-25T08:56:52.825Z,99125.78
2022-08-25T08:59:19.993Z,99123.19
2022-08-25T09:01:52.606Z,99127.75
2022-08-25T09:04:21.172Z,99126.25
2022-08-25T09:06:50.968Z,99124.50
2022-08-25T09:09:20.122Z,99125.34
2022-08-25T09:11:46.907Z,99126.00
2022-08-25T09:14:13.332Z,99120.59
2022-08-25T09:16:42.786Z,99123.97
2022-08-25T09:19:11.058Z,99113.38
2022-08-25T09:21:47.695Z,99115.84
2022-08-25T09:24:15.800Z,99113.91
2022-08-25T09:26:42.390Z,99108.41
2022-08-25T09:29:16.348Z,99111.50
2022-08-25T09:31:43.686Z,99103.25
2022-08-25T09:34:10.358Z,99096.38
2022-08-25T09:36:39.270Z,99108.31
2022-08-25T09:39:05.905Z,99092.75
2022-08-25T09:41:33.354Z,99094.41
2022-08-25T09:44:02.341Z,99091.34
2022-08-25T09:46:28.891Z,99083.25
2022-08-25T09:48:56.847Z,99079.13
2022-08-25T09:51:24.301Z,99065.59
2022-08-25T09:53:51.535Z,99067.28
2022-08-25T09:56:17.969Z,99065.91
2022-08-25T09:58:45.515Z,99068.25
2022-08-25T10:01:12.268Z,99065.13
2022-08-25T10:03:39.006Z,99054.59
2022-08-25T10:06:05.495Z,99052.94
2022-08-25T10:08:32.043Z,99044.41
2022-08-25T10:10:58.601Z,99054.72
2022-08-25T10:13:25.247Z,99059.63
2022-08-25T10:18:36.076Z,99051.69
2022-08-25T10:21:02.483Z,99052.69
2022-08-25T10:23:30.695Z,99047.22
2022-08-25T10:26:00.570Z,99041.16
2022-08-25T10:28:29.925Z,99043.31
2022-08-25T10:30:56.397Z,99040.53
2022-08-25T10:33:23.043Z,99032.97
2022-08-25T10:35:49.643Z,99029.91
2022-08-25T10:38:21.623Z,99029.34
2022-08-25T10:40:48.589Z,99038.38
2022-08-25T10:43:27.418Z,99030.94
2022-08-25T10:45:54.275Z,99027.03
2022-08-25T10:48:22.272Z,99030.38
2022-08-25T10:50:49.114Z,99027.56
2022-08-25T10:53:15.892Z,99029.75
2022-08-25T12:00:26.542Z,98973.34
2022-08-25T12:02:52.926Z,98972.13
2022-08-25T12:05:19.399Z,98978.69
2022-08-25T12:07:46.205Z,98972.72
2022-08-25T12:10:12.879Z,98966.56
2022-08-25T12:12:39.291Z,98975.31
2022-08-25T12:15:06.031Z,98971.56
2022-08-25T12:17:32.522Z,98979.19
2022-08-25T12:19:59.312Z,98967.31
2022-08-25T12:22:25.790Z,98958.38
2022-08-25T12:24:52.294Z,98967.28
2022-08-25T12:27:18.731Z,98964.22
2022-08-25T12:29:50.017Z,98965.91
2022-08-25T12:32:16.678Z,98959.00
2022-08-25T12:34:43.057Z,98971.53
2022-08-25T12:37:14.751Z,98962.03
2022-08-25T12:39:41.183Z,98960.38
2022-08-25T12:42:07.595Z,98960.63
2022-08-25T12:44:34.191Z,98951.06
2022-08-25T12:47:00.654Z,98953.91
2022-08-25T12:49:30.720Z,98948.19
2022-08-25T12:51:59.301Z,98950.75
2022-08-25T12:54:25.762Z,98947.38
2022-08-25T12:56:53.910Z,98943.72
2022-08-25T12:59:20.838Z,98942.81
2022-08-25T13:01:47.979Z,98945.84
2022-08-25T13:04:15.854Z,98945.16
2022-08-25T13:06:48.831Z,98935.88
2022-08-25T13:09:15.636Z,98936.97
2022-08-25T13:11:42.636Z,98934.72
2022-08-25T13:14:11.495Z,98933.81
2022-08-25T13:16:38.061Z,98929.16
2022-08-25T13:19:04.700Z,98936.63
2022-08-25T13:21:33.413Z,98929.56
2022-08-25T13:24:05.149Z,98926.66
2022-08-25T13:26:32.438Z,98924.56
2022-08-25T13:28:59.949Z,98919.97
2022-08-25T13:31:26.468Z,98928.09
2022-08-25T13:33:54.927Z,98923.84
2022-08-25T13:36:21.821Z,98921.03
2022-08-25T13:38:48.767Z,98918.13
2022-08-25T13:41:16.382Z,98914.78
2022-08-25T13:43:44.711Z,98916.81
2022-08-25T13:46:12.474Z,98916.03
2022-08-25T13:48:49.823Z,98903.34
2022-08-25T13:51:16.647Z,98918.75
2022-08-25T13:53:48.388Z,98906.66
2022-08-25T13:58:46.947Z,98910.88
2022-08-25T14:01:22.331Z,98906.28
2022-08-25T14:04:01.461Z,98907.59
2022-08-25T14:06:28.076Z,98899.16
2022-08-25T14:08:54.861Z,98900.78
2022-08-25T14:11:21.500Z,98892.72
2022-08-25T14:13:48.651Z,98887.50
2022-08-25T14:16:15.687Z,98889.97
2022-08-25T14:18:44.348Z,98894.56
2022-08-25T14:21:11.083Z,98881.63
2022-08-25T14:23:37.901Z,98880.22
2022-08-25T14:26:04.650Z,98885.72
2022-08-25T14:28:33.083Z,98883.25
2022-08-25T14:30:59.616Z,98878.34
2022-08-25T14:33:26.870Z,98875.41
2022-08-25T14:35:53.953Z,98865.81
2022-08-25T14:38:21.795Z,98877.09
2022-08-25T14:40:52.156Z,98872.53
2022-08-25T14:43:20.888Z,98872.53
2022-08-25T14:45:50.950Z,98876.69
2022-08-25T14:48:19.478Z,98862.53
2022-08-25T14:50:46.082Z,98863.38
2022-08-25T14:53:13.024Z,98859.63
2022-08-25T14:55:39.742Z,98860.03
2022-08-25T14:58:06.845Z,98863.38
2022-08-25T15:00:35.532Z,98860.50
2022-08-25T15:03:03.114Z,98861.94
2022-08-25T15:05:29.850Z,98854.00
2022-08-25T15:07:57.611Z,98859.22
2022-08-25T15:10:25.483Z,98856.31
2022-08-25T15:12:53.904Z,98849.63
2022-08-25T15:15:21.597Z,98851.69
2022-08-25T15:17:49.481Z,98851.91
2022-08-25T15:20:16.864Z,98852.94
2022-08-25T15:22:43.496Z,98850.22
2022-08-25T15:25:10.423Z,98853.16
2022-08-25T15:27:37.365Z,98846.69
2022-08-25T15:30:03.883Z,98843.53
2022-08-25T15:32:30.550Z,98847.91
2022-08-25T15:34:57.721Z,98844.97
2022-08-25T15:37:24.438Z,98847.69
2022-08-25T15:39:50.908Z,98839.13
2022-08-25T15:42:17.450Z,98834.09
2022-08-25T15:44:53.331Z,98833.28
2022-08-25T15:47:20.162Z,98829.50
2022-08-25T15:49:47.072Z,98829.97
2022-08-25T15:52:13.684Z,98825.59
2022-08-25T15:54:40.474Z,98828.69
2022-08-25T15:57:09.530Z,98834.09
2022-08-25T15:59:41.025Z,98821.19
2022-08-25T16:02:15.281Z,98820.34
2022-08-25T16:04:42.034Z,98819.50
2022-08-25T16:07:09.256Z,98820.75
2022-08-25T16:09:40.281Z,98809.28
2022-08-25T16:12:08.719Z,98824.91
2022-08-25T16:14:35.423Z,98821.59
2022-08-25T16:17:02.210Z,98822.44
2022-08-25T16:19:29.527Z,98819.91
2022-08-25T16:21:56.226Z,98816.81
2022-08-25T16:24:22.763Z,98819.13
2022-08-25T16:26:50.357Z,98811.00
2022-08-25T16:29:18.347Z,98814.34
2022-08-25T16:31:48.187Z,98814.13
2022-08-25T16:34:20.042Z,98808.47
2022-08-25T16:36:46.755Z,98811.00
2022-08-25T16:39:13.218Z,98812.47
2022-08-25T16:41:40.160Z,98799.72
2022-08-25T16:44:11.141Z,98805.56
2022-08-25T16:46:38.161Z,98802.06
2022-08-25T16:49:07.225Z,98800.41
2022-08-25T16:51:33.697Z,98802.50
2022-08-25T16:54:00.646Z,98804.53
2022-08-25T16:56:27.598Z,98805.00
2022-08-25T16:58:54.000Z,98803.31
2022-08-25T17:01:21.321Z,98800.41
2022-08-25T17:03:48.179Z,98803.50
2022-08-25T17:06:15.137Z,98808.94
2022-08-25T17:08:42.109Z,98803.31
2022-08-25T17:11:10.247Z,98805.81
2022-08-25T17:13:36.783Z,98801.22
2022-08-25T17:16:03.348Z,98806.22
2022-08-25T17:18:30.059Z,98798.50
2022-08-25T17:20:56.532Z,98796.16
2022-08-25T17:23:22.968Z,98798.66
2022-08-25T17:25:49.542Z,98800.59
2022-08-25T17:28:15.959Z,98804.13
2022-08-25T17:30:42.905Z,98801.22
2022-08-25T17:33:09.478Z,98804.97
2022-08-25T17:35:35.858Z,98804.97
2022-08-25T17:38:02.315Z,98811.63
2022-08-25T17:40:32.953Z,98817.06
2022-08-25T17:43:01.555Z,98812.06
2022-08-25T17:45:27.968Z,98819.97
2022-08-25T17:47:54.900Z,98821.44
2022-08-25T17:50:21.809Z,98825.28
2022-08-25T17:52:49.030Z,98820.03
2022-08-25T17:55:15.721Z,98822.19
2022-08-25T17:57:42.305Z,98826.13
2022-08-25T18:00:08.709Z,98832.88
2022-08-25T18:02:37.763Z,98828.41
2022-08-25T18:05:04.353Z,98832.28
2022-08-25T18:07:31.658Z,98827.16
2022-08-25T18:09:58.312Z,98828.69
2022-08-25T18:12:27.368Z,98831.25
2022-08-25T18:14:54.173Z,98829.34
2022-08-25T18:17:21.968Z,98828.28
2022-08-25T18:19:49.699Z,98830.44
2022-08-25T18:22:16.184Z,98836.94
2022-08-25T18:24:42.982Z,98830.53
2022-08-25T18:27:09.508Z,98843.25
2022-08-25T18:29:35.948Z,98844.81
2022-08-25T18:32:02.412Z,98836.22
2022-08-25T18:34:31.091Z,98844.53
2022-08-25T18:36:57.754Z,98850.47
2022-08-25T18:39:24.720Z,98852.75
2022-08-25T18:41:51.510Z,98847.91
2022-08-25T18:44:18.088Z,98841.38
2022-08-25T18:46:45.254Z,98848.00
2022-08-25T18:49:12.129Z,98848.38
2022-08-25T18:51:42.631Z,98848.19
2022-08-25T18:54:22.850Z,98855.81
2022-08-25T18:56:50.344Z,98859.63
2022-08-25T18:59:18.220Z,98856.00
2022-08-25T19:01:45.453Z,98857.59
2022-08-25T19:04:12.097Z,98856.91
2022-08-25T19:06:38.907Z,98854.19
2022-08-25T19:09:10.281Z,98857.81
2022-08-25T19:11:36.964Z,98858.69
2022-08-25T19:14:03.628Z,98854.34
2022-08-25T19:16:39.491Z,98845.75
2022-08-25T19:19:07.405Z,98851.97
2022-08-25T19:21:35.081Z,98856.59
2022-08-25T19:24:03.162Z,98850.63
2022-08-25T19:26:29.875Z,98850.94
2022-08-25T19:28:56.690Z,98853.00
2022-08-25T19:31:23.307Z,98850.19
2022-08-25T19:33:50.072Z,98859.72
2022-08-25T19:36:17.367Z,98854.09
2022-08-25T19:38:43.846Z,98845.81
2022-08-25T19:41:14.523Z,98847.84
2022-08-25T19:43:55.213Z,98851.47
2022-08-25T19:46:23.573Z,98846.78
2022-08-25T19:48:50.585Z,98844.91
2022-08-25T19:51:19.286Z,98850.38
2022-08-25T19:53:54.816Z,98851.25
2022-08-25T19:56:23.113Z,98840.94
2022-08-25T19:58:49.582Z,98845.41
2022-08-25T20:01:18.184Z,98837.97
2022-08-25T20:03:46.205Z,98840.28
2022-08-25T20:06:15.939Z,98842.63
2022-08-25T20:08:42.807Z,98840.75
2022-08-25T20:11:09.452Z,98846.06
2022-08-25T20:13:36.289Z,98843.84
2022-08-25T20:16:02.797Z,98845.13
2022-08-25T20:18:32.076Z,98843.56
2022-08-25T20:20:58.540Z,98845.25
2022-08-25T20:23:25.274Z,98839.38
2022-08-25T20:25:54.300Z,98854.06
2022-08-25T20:28:22.840Z,98854.06
2022-08-25T20:30:49.444Z,98850.03
2022-08-25T20:33:22.838Z,98846.50
2022-08-25T20:35:50.245Z,98850.63
2022-08-25T20:38:21.020Z,98852.44
2022-08-25T20:40:49.912Z,98851.44
2022-08-25T20:43:16.535Z,98848.09
2022-08-25T20:45:43.200Z,98845.66
2022-08-25T20:48:09.760Z,98853.84
2022-08-25T20:50:36.259Z,98853.31
2022-08-25T20:53:05.418Z,98853.69
2022-08-25T20:55:41.704Z,98849.00
2022-08-25T20:58:09.052Z,98850.59
2022-08-25T21:00:36.129Z,98851.66
2022-08-25T21:03:02.741Z,98852.44
2022-08-25T21:05:29.253Z,98851.75
2022-08-25T21:08:02.943Z,98852.91
2022-08-25T21:10:29.428Z,98850.31
2022-08-25T21:12:57.630Z,98846.16
2022-08-25T21:15:24.266Z,98849.47
2022-08-25T21:17:50.789Z,98849.47
2022-08-25T21:20:17.963Z,98851.88
2022-08-25T21:22:44.970Z,98853.25
2022-08-25T21:25:14.296Z,98859.50
2022-08-25T21:27:40.787Z,98850.34
2022-08-25T21:30:11.277Z,98850.31
2022-08-25T21:32:37.832Z,98853.09
2022-08-25T21:35:04.447Z,98859.75
2022-08-25T21:37:34.407Z,98858.22
2022-08-25T21:40:01.097Z,98856.56
2022-08-25T21:42:28.643Z,98857.91
2022-08-25T21:44:55.060Z,98849.38
2022-08-25T21:47:21.740Z,98852.00
2022-08-25T21:49:49.860Z,98847.06
2022-08-25T21:52:16.373Z,98850.88
2022-08-25T21:54:44.476Z,98847.63
2022-08-25T21:57:11.555Z,98848.00
2022-08-25T21:59:37.979Z,98839.38
2022-08-25T22:02:05.471Z,98837.66
2022-08-25T22:04:32.258Z,98832.34
2022-08-25T22:06:59.259Z,98828.97
2022-08-25T22:09:28.565Z,98826.38
2022-08-25T22:11:55.096Z,98821.38
2022-08-25T22:14:21.642Z,98827.97
2022-08-25T22:16:48.194Z,98824.63
2022-08-25T22:19:15.328Z,98833.34
2022-08-25T22:21:41.842Z,98829.75
2022-08-25T22:24:08.458Z,98823.97
2022-08-25T22:26:34.907Z,98829.34
2022-08-25T22:29:01.400Z,98822.22
2022-08-25T22:31:27.842Z,98826.56
2022-08-25T22:33:54.891Z,98823.91
2022-08-25T22:36:24.204Z,98830.06
2022-08-25T22:38:51.325Z,98824.03
2022-08-25T22:41:19.070Z,98825.16
2022-08-25T22:43:49.925Z,98820.25
2022-08-25T22:46:17.985Z,98815.06
2022-08-25T22:48:44.775Z,98818.03
2022-08-25T22:51:12.670Z,98808.84
2022-08-25T22:53:39.186Z,98809.63
2022-08-25T22:56:05.748Z,98808.31
2022-08-25T22:58:32.312Z,98805.09
2022-08-25T23:01:00.964Z,98798.50
2022-08-25T23:03:27.490Z,98801.13
2022-08-25T23:05:53.969Z,98797.81
2022-08-25T23:08:38.905Z,98794.81
2022-08-25T23:11:07.141Z,98797.78
2022-08-25T23:13:34.757Z,98792.69
2022-08-25T23:16:05.277Z,98793.78
2022-08-25T23:18:32.300Z,98792.31
2022-08-25T23:20:59.030Z,98781.34
2022-08-25T23:23:28.558Z,98781.16
2022-08-25T23:25:55.184Z,98780.38
2022-08-25T23:28:21.926Z,98776.69
2022-08-25T23:30:50.976Z,98776.81
2022-08-25T23:33:25.990Z,98774.63
2022-08-25T23:35:52.452Z,98776.84
2022-08-25T23:38:19.128Z,98773.91
2022-08-25T23:40:45.974Z,98767.81
2022-08-25T23:43:13.096Z,98768.38
2022-08-25T23:45:39.626Z,98768.78
2022-08-25T23:48:07.428Z,98775.09
2022-08-25T23:50:33.964Z,98764.97
2022-08-25T23:53:00.469Z,98777.59
2022-08-25T23:55:33.429Z,98763.34
2022-08-25T23:58:00.640Z,98764.28
